Terminal Aerodrome Forecast
Issued by NWS Kansas City/Pleasant Hill, MO

Home | Current Version | Previous Version | Text Only | Print | Product List | Glossary On
Versions: 1 2 3 4 5 6 7 8 9 10 11 12 13
000
FTUS43 KEAX 280500
TAFMCI
TAF
KMCI 280520Z 2806/0106 12007KT P6SM BKN070
     FM281300 12006KT P6SM OVC025
     FM281600 15009KT 2SM -SN OVC010
     FM010000 17010KT P6SM OVC012=

USA.gov is the U.S. government's official web portal to all federal, state and local government web resources and services.